createdAt,value
2022-10-14T00:01:32.759Z,3.58
2022-10-14T00:06:34.877Z,2.70
2022-10-14T00:11:37.423Z,3.70
2022-10-14T00:16:40.614Z,3.05
2022-10-14T00:21:43.075Z,3.28
2022-10-14T00:26:44.965Z,3.40
2022-10-14T00:31:46.942Z,3.47
2022-10-14T00:36:48.410Z,3.50
2022-10-14T00:41:49.891Z,3.53
2022-10-14T00:46:51.467Z,3.75
2022-10-14T00:52:02.057Z,3.80
2022-10-14T00:57:03.975Z,3.10
2022-10-14T01:02:05.421Z,2.90
2022-10-14T01:07:25.182Z,3.30
2022-10-14T01:12:50.316Z,3.15
2022-10-14T01:17:54.472Z,3.60
2022-10-14T01:23:04.766Z,3.53
2022-10-14T01:28:06.201Z,3.78
2022-10-14T01:33:11.406Z,4.22
2022-10-14T01:38:34.074Z,3.45
2022-10-14T01:43:36.330Z,3.17
2022-10-14T01:48:39.521Z,3.42
2022-10-14T01:53:42.820Z,3.60
2022-10-14T01:58:45.778Z,4.28
2022-10-14T02:03:47.673Z,3.17
2022-10-14T02:09:09.926Z,3.72
2022-10-14T02:14:11.598Z,3.25
2022-10-14T02:19:18.842Z,3.63
2022-10-14T02:24:22.185Z,4.30
2022-10-14T02:29:24.719Z,3.45
2022-10-14T02:34:26.556Z,3.58
2022-10-14T02:39:30.255Z,4.18
2022-10-14T02:44:31.706Z,4.60
2022-10-14T02:49:33.153Z,4.35
2022-10-14T02:54:34.630Z,3.70
2022-10-14T02:59:36.142Z,4.47
2022-10-14T03:04:37.604Z,4.20
2022-10-14T03:09:39.030Z,5.20
2022-10-14T03:14:40.512Z,4.38
2022-10-14T03:19:42.000Z,4.55
2022-10-14T03:24:43.437Z,4.35
2022-10-14T03:29:44.849Z,4.20
2022-10-14T03:34:46.328Z,4.13
2022-10-14T03:39:47.786Z,4.10
2022-10-14T03:44:49.252Z,5.25
2022-10-14T03:49:50.690Z,4.13
2022-10-14T03:54:52.121Z,4.60
2022-10-14T03:59:53.573Z,4.13
2022-10-14T04:04:59.913Z,4.00
2022-10-14T04:10:02.345Z,4.60
2022-10-14T04:15:03.904Z,4.25
2022-10-14T04:20:05.597Z,4.88
2022-10-14T04:25:07.378Z,4.45
2022-10-14T04:30:09.716Z,4.50
2022-10-14T04:35:11.149Z,3.85
2022-10-14T04:40:12.650Z,3.95
2022-10-14T04:45:14.070Z,4.70
2022-10-14T04:50:15.847Z,4.63
2022-10-14T04:55:17.393Z,4.63
2022-10-14T05:00:18.956Z,4.40
2022-10-14T05:05:20.611Z,4.57
2022-10-14T05:10:22.498Z,4.20
2022-10-14T05:15:24.061Z,3.75
2022-10-14T05:20:25.631Z,4.15
2022-10-14T05:25:27.170Z,3.90
2022-10-14T05:30:32.294Z,3.75
2022-10-14T05:35:57.685Z,3.85
2022-10-14T05:40:57.590Z,4.57
2022-10-14T05:45:59.185Z,4.07
2022-10-14T05:51:02.554Z,3.72
2022-10-14T05:56:05.685Z,4.35
2022-10-14T06:01:08.524Z,4.20
2022-10-14T06:06:14.370Z,4.72
2022-10-14T06:11:15.818Z,5.13
2022-10-14T06:16:17.555Z,5.13
2022-10-14T06:21:19.138Z,4.35
2022-10-14T06:26:20.613Z,5.97
2022-10-14T06:31:22.105Z,6.43
2022-10-14T06:36:23.775Z,6.22
2022-10-14T06:41:25.230Z,5.53
2022-10-14T06:46:26.811Z,7.45
2022-10-14T06:51:28.238Z,5.97
2022-10-14T06:56:29.761Z,5.15
2022-10-14T07:01:31.275Z,5.25
2022-10-14T07:06:32.854Z,5.85
2022-10-14T07:11:34.312Z,5.28
2022-10-14T07:16:35.789Z,4.78
2022-10-14T07:21:37.240Z,7.00
2022-10-14T07:26:38.843Z,6.22
2022-10-14T07:31:40.327Z,5.78
2022-10-14T07:36:41.838Z,5.15
2022-10-14T07:41:43.329Z,4.93
2022-10-14T07:46:45.699Z,4.82
2022-10-14T07:51:47.525Z,4.65
2022-10-14T07:56:51.905Z,4.90
2022-10-14T08:01:53.590Z,6.03
2022-10-14T08:06:55.065Z,4.97
2022-10-14T08:11:56.558Z,5.50
2022-10-14T08:16:58.258Z,7.65
2022-10-14T08:21:59.834Z,7.82
2022-10-14T08:27:01.399Z,7.25
2022-10-14T08:32:02.904Z,7.68
2022-10-14T08:37:04.391Z,6.07
2022-10-14T08:42:41.221Z,7.18
2022-10-14T08:47:45.649Z,9.80
2022-10-14T08:52:50.617Z,9.32
2022-10-14T08:57:56.864Z,8.93
2022-10-14T09:02:59.703Z,9.90
2022-10-14T09:08:01.770Z,7.88
2022-10-14T09:13:18.491Z,9.13
2022-10-14T09:18:27.021Z,8.63
2022-10-14T09:23:28.500Z,8.25
2022-10-14T09:28:34.741Z,6.68
2022-10-14T09:33:42.266Z,6.00
2022-10-14T09:38:47.206Z,6.50
2022-10-14T09:44:07.374Z,6.25
2022-10-14T09:49:14.682Z,6.13
2022-10-14T09:54:22.029Z,5.53
2022-10-14T09:59:24.434Z,5.82
2022-10-14T10:04:27.360Z,5.97
2022-10-14T10:09:28.826Z,6.32
2022-10-14T10:14:33.064Z,4.97
2022-10-14T10:19:35.522Z,5.32
2022-10-14T10:24:36.957Z,5.25
2022-10-14T10:29:38.438Z,5.60
2022-10-14T10:34:58.692Z,5.95
2022-10-14T10:40:02.906Z,5.80
2022-10-14T10:45:07.487Z,4.97
2022-10-14T10:50:27.739Z,5.65
2022-10-14T10:55:50.163Z,4.50
2022-10-14T11:00:59.211Z,4.47
2022-10-14T11:06:00.657Z,4.75
2022-10-14T11:11:20.573Z,4.70
2022-10-14T11:16:34.163Z,4.57
2022-10-14T11:21:35.620Z,4.80
2022-10-14T11:26:49.184Z,6.05
2022-10-14T11:31:57.809Z,5.10
2022-10-14T11:37:02.034Z,5.68
2022-10-14T11:42:03.925Z,5.82
2022-10-14T11:47:10.069Z,4.47
2022-10-14T11:52:14.387Z,5.40
2022-10-14T11:57:28.321Z,4.88
2022-10-14T12:02:32.879Z,5.22
2022-10-14T12:07:57.346Z,4.00
2022-10-14T12:12:59.441Z,4.28
2022-10-14T12:18:01.572Z,4.78
2022-10-14T12:23:05.266Z,4.40
2022-10-14T12:28:08.891Z,4.88
2022-10-14T12:33:14.072Z,4.85
2022-10-14T12:38:16.580Z,4.72
2022-10-14T12:43:29.534Z,5.20
2022-10-14T12:48:32.952Z,5.05
2022-10-14T12:53:35.082Z,4.65
2022-10-14T12:58:39.154Z,4.30
2022-10-14T13:03:43.547Z,5.05
2022-10-14T13:09:04.926Z,4.07
2022-10-14T13:14:21.858Z,4.97
2022-10-14T13:19:35.290Z,4.82
2022-10-14T13:24:41.600Z,4.75
2022-10-14T13:29:55.205Z,5.10
2022-10-14T13:34:56.601Z,4.80
2022-10-14T13:39:58.901Z,4.18
2022-10-14T13:45:18.797Z,4.35
2022-10-14T13:50:23.030Z,5.13
2022-10-14T13:55:25.345Z,4.97
2022-10-14T14:00:43.156Z,4.63
2022-10-14T14:05:44.651Z,5.13
2022-10-14T14:11:14.937Z,5.47
2022-10-14T14:16:22.158Z,5.00
2022-10-14T14:21:24.338Z,5.50
2022-10-14T14:26:28.951Z,4.43
2022-10-14T14:31:48.059Z,5.45
2022-10-14T14:36:57.873Z,4.82
2022-10-14T14:42:03.033Z,4.50
2022-10-14T14:47:04.982Z,5.13
2022-10-14T14:52:06.773Z,5.00
2022-10-14T14:57:08.518Z,5.35
2022-10-14T15:02:18.117Z,5.47
2022-10-14T15:07:21.908Z,4.87
2022-10-14T15:12:23.768Z,5.20
2022-10-14T15:17:39.557Z,5.07
2022-10-14T15:22:41.133Z,5.97
2022-10-14T15:27:46.734Z,4.53
2022-10-14T15:32:49.279Z,5.32
2022-10-14T15:37:51.262Z,4.85
2022-10-14T15:42:52.907Z,4.97
2022-10-14T15:53:02.724Z,5.25
2022-10-14T15:58:05.188Z,4.93
2022-10-14T16:03:07.674Z,4.97
2022-10-14T16:08:15.054Z,5.20
2022-10-14T16:13:16.503Z,4.95
2022-10-14T16:18:22.505Z,4.75
2022-10-14T16:23:29.584Z,5.63
2022-10-14T16:28:34.058Z,5.07
2022-10-14T16:33:35.545Z,5.72
2022-10-14T16:38:36.973Z,5.45
2022-10-14T16:43:38.931Z,5.13
2022-10-14T16:48:40.502Z,5.10
2022-10-14T16:53:42.093Z,5.45
2022-10-14T16:58:43.543Z,5.88
2022-10-14T17:03:44.973Z,5.57
2022-10-14T17:08:46.464Z,5.93
2022-10-14T17:13:50.970Z,6.03
2022-10-14T17:18:52.846Z,6.72
2022-10-14T17:23:54.278Z,6.88
2022-10-14T17:28:57.441Z,5.80
2022-10-14T17:33:59.357Z,6.10
2022-10-14T17:39:00.842Z,6.45
2022-10-14T17:44:02.710Z,6.20
2022-10-14T17:49:05.922Z,6.45
2022-10-14T17:54:09.730Z,6.07
2022-10-14T17:59:12.546Z,6.78
2022-10-14T18:04:14.147Z,6.22
2022-10-14T18:09:15.738Z,6.60
2022-10-14T18:14:17.191Z,6.70
2022-10-14T18:19:19.612Z,6.65
2022-10-14T18:24:21.129Z,6.30
2022-10-14T18:29:23.649Z,6.35
2022-10-14T18:34:27.318Z,7.97
2022-10-14T18:39:28.762Z,6.65
2022-10-14T18:44:30.269Z,7.10
2022-10-14T18:49:34.529Z,7.18
2022-10-14T18:54:39.623Z,6.93
2022-10-14T18:59:41.066Z,6.35
2022-10-14T19:04:42.528Z,6.40
2022-10-14T19:09:44.681Z,5.65
2022-10-14T19:14:46.815Z,6.15
2022-10-14T19:19:48.274Z,6.20
2022-10-14T19:24:49.756Z,5.45
2022-10-14T19:29:51.303Z,6.03
2022-10-14T19:34:52.757Z,5.25
2022-10-14T19:39:54.226Z,6.93
2022-10-14T19:44:55.667Z,5.78
2022-10-14T19:49:57.092Z,6.18
2022-10-14T19:54:58.521Z,6.38
2022-10-14T19:59:59.962Z,11.52
2022-10-14T20:05:01.564Z,7.10
2022-10-14T20:10:03.266Z,6.40
2022-10-14T20:15:05.482Z,6.80
2022-10-14T20:20:07.627Z,5.68
2022-10-14T20:25:09.163Z,5.18
2022-10-14T20:30:10.898Z,4.50
2022-10-14T20:35:14.981Z,4.40
2022-10-14T20:40:16.698Z,4.22
2022-10-14T20:45:18.466Z,3.47
2022-10-14T20:50:20.490Z,3.90
2022-10-14T20:55:22.295Z,3.72
2022-10-14T21:00:23.789Z,3.00
2022-10-14T21:05:25.339Z,3.42
2022-10-14T21:10:27.462Z,3.08
2022-10-14T21:15:28.912Z,3.22
2022-10-14T21:20:30.590Z,3.25
2022-10-14T21:25:32.237Z,3.10
2022-10-14T21:30:34.164Z,3.53
2022-10-14T21:35:35.770Z,2.80
2022-10-14T21:40:37.201Z,3.47
2022-10-14T21:45:38.669Z,3.05
2022-10-14T21:50:40.103Z,3.45
2022-10-14T21:55:41.541Z,3.22
2022-10-14T22:00:42.989Z,4.03
2022-10-14T22:05:44.708Z,3.38
2022-10-14T22:10:46.201Z,2.95
2022-10-14T22:15:47.674Z,3.85
2022-10-14T22:20:49.790Z,3.28
2022-10-14T22:25:51.269Z,3.58
2022-10-14T22:30:52.742Z,3.13
2022-10-14T22:35:54.195Z,2.95
2022-10-14T22:40:55.704Z,3.15
2022-10-14T22:46:11.586Z,3.33
2022-10-14T22:51:14.082Z,3.30
2022-10-14T22:56:17.413Z,3.28
2022-10-14T23:01:21.197Z,3.50
2022-10-14T23:06:22.736Z,3.33
2022-10-14T23:11:25.019Z,3.00
2022-10-14T23:16:27.278Z,3.45
2022-10-14T23:21:30.159Z,3.33
2022-10-14T23:26:33.101Z,3.25
2022-10-14T23:31:35.116Z,3.80
2022-10-14T23:36:36.806Z,3.25
2022-10-14T23:41:38.305Z,3.50
2022-10-14T23:46:39.798Z,3.50
2022-10-14T23:51:41.358Z,3.47
2022-10-14T23:56:42.839Z,3.03
